Time;durP1;ratioP1;P1;durP2;ratioP2;P2;SDS_P1;SDS_P2;PMS_P1;PMS_P2;Temp;Humidity;BMP_temperature;BMP_pressure;BME280_temperature;BME280_humidity;BME280_pressure;Samples;Min_cycle;Max_cycle;Signal;HPM_P1;HPM_P2
2023/03/11 00:08:36;;;;;;;18.95;17.00;;;14.70;99.90;;;;;;5022852;28;20550;-92
2023/03/11 00:13:58;;;;;;;24.65;16.77;;;14.40;99.90;;;;;;6029927;23;20769;-92
2023/03/11 05:38:11;;;;;;;47.10;9.38;;;13.10;99.90;;;;;;4923124;29;20103;-94
2023/03/11 05:41:28;;;;;;;35.85;8.57;;;13.20;99.90;;;;;;4927733;29;20055;-94
2023/03/11 06:07:02;;;;;;;44.15;10.45;;;14.20;99.90;;;;;;5994079;22;20029;-94
2023/03/11 06:10:17;;;;;;;44.03;14.23;;;14.40;99.90;;;;;;4962979;28;20051;-93
2023/03/11 07:58:11;;;;;;;42.20;21.30;;;17.50;99.90;;;;;;4975837;28;20058;-84
2023/03/11 08:00:40;;;;;;;39.17;20.17;;;17.70;99.90;;;;;;4960405;28;20415;-90
2023/03/11 08:03:06;;;;;;;43.20;20.67;;;17.90;99.90;;;;;;4976582;28;20037;-84
2023/03/11 08:05:33;;;;;;;43.95;21.65;;;18.10;99.90;;;;;;4960601;28;20109;-82
2023/03/11 08:07:59;;;;;;;42.58;21.10;;;18.50;99.90;;;;;;4960723;28;20030;-91
2023/03/11 08:10:25;;;;;;;34.28;20.13;;;18.70;99.90;;;;;;4976514;28;20030;-86
2023/03/11 08:12:52;;;;;;;38.03;21.33;;;18.90;99.90;;;;;;4976052;28;20094;-84
2023/03/11 08:15:18;;;;;;;41.67;20.80;;;19.30;99.90;;;;;;4984624;28;20101;-84
2023/03/11 08:17:44;;;;;;;37.92;20.75;;;19.40;99.90;;;;;;4960791;28;20033;-87
2023/03/11 08:20:11;;;;;;;41.17;21.30;;;19.40;99.90;;;;;;4960570;28;20026;-83
2023/03/11 08:22:50;;;;;;;34.25;20.60;;;19.60;99.90;;;;;;4963448;28;20381;-92
2023/03/11 09:08:58;;;;;;;53.35;20.15;;;17.90;99.90;;;;;;5128322;23;20085;-92
2023/03/11 09:14:21;;;;;;;41.80;19.90;;;17.80;99.90;;;;;;4981500;28;20047;-90
2023/03/11 09:16:47;;;;;;;36.85;18.77;;;17.80;99.90;;;;;;4983984;28;20575;-90
2023/03/11 09:19:13;;;;;;;47.78;19.20;;;17.60;99.90;;;;;;4996572;28;20063;-88
2023/03/11 09:21:40;;;;;;;40.15;19.50;;;17.50;99.90;;;;;;4996609;28;20026;-89
2023/03/11 09:24:09;;;;;;;42.53;18.88;;;17.60;99.90;;;;;;4996759;28;20098;-88
2023/03/11 09:26:36;;;;;;;33.40;19.15;;;17.60;99.90;;;;;;4992823;28;20074;-88
2023/03/11 09:29:02;;;;;;;43.22;19.42;;;17.80;99.90;;;;;;4961182;28;20023;-89
2023/03/11 09:31:29;;;;;;;31.48;18.00;;;18.10;99.90;;;;;;4964768;28;20081;-87
2023/03/11 09:33:55;;;;;;;41.55;18.02;;;18.40;99.90;;;;;;4980359;28;20034;-84
2023/03/11 09:36:26;;;;;;;39.20;19.55;;;18.70;99.90;;;;;;4982750;28;20035;-90
2023/03/11 09:38:54;;;;;;;38.63;18.73;;;18.70;99.90;;;;;;4980519;28;20030;-87
2023/03/11 09:41:51;;;;;;;42.47;19.35;;;18.80;99.90;;;;;;4982008;28;20042;-89
2023/03/11 09:44:25;;;;;;;37.15;18.42;;;18.70;99.90;;;;;;4982380;28;20043;-85
2023/03/11 09:47:10;;;;;;;38.60;18.92;;;18.40;99.90;;;;;;4982086;28;20030;-83
2023/03/11 09:50:04;;;;;;;32.90;18.73;;;18.40;99.90;;;;;;4982659;28;20120;-85
2023/03/11 09:53:10;;;;;;;32.47;19.07;;;18.40;99.90;;;;;;4980817;28;20081;-89
2023/03/11 09:56:16;;;;;;;40.22;19.38;;;18.70;99.90;;;;;;4906687;29;20048;-90
2023/03/11 18:03:06;;;;;;;43.53;20.95;;;14.50;99.90;;;;;;5106367;23;20064;-94
2023/03/11 18:05:32;;;;;;;35.65;18.35;;;14.40;99.90;;;;;;5016876;28;20037;-92
2023/03/11 18:07:58;;;;;;;29.00;17.38;;;14.40;99.90;;;;;;5000398;28;20101;-91
2023/03/11 18:10:24;;;;;;;33.97;18.00;;;14.40;99.90;;;;;;5000148;28;20368;-92
2023/03/11 18:12:51;;;;;;;36.47;17.08;;;14.20;99.90;;;;;;4999884;28;20029;-91
2023/03/11 18:15:18;;;;;;;40.42;17.67;;;14.20;99.90;;;;;;4999555;28;20038;-92
2023/03/11 18:17:46;;;;;;;45.25;17.38;;;14.20;99.90;;;;;;4983050;28;20018;-93
2023/03/11 18:20:13;;;;;;;39.35;17.48;;;14.20;99.90;;;;;;4999643;28;20037;-93
2023/03/11 18:22:41;;;;;;;32.33;16.23;;;14.20;99.90;;;;;;4982916;28;20026;-93
2023/03/11 18:25:11;;;;;;;34.42;17.83;;;14.20;99.90;;;;;;4999288;28;20026;-92
2023/03/11 18:27:38;;;;;;;42.75;16.98;;;14.10;99.90;;;;;;4983203;28;20398;-92
2023/03/11 18:30:06;;;;;;;28.95;15.45;;;14.10;99.90;;;;;;4999470;28;20105;-94
2023/03/11 18:32:33;;;;;;;31.70;15.85;;;14.00;99.90;;;;;;4998961;28;20038;-91
2023/03/11 18:34:59;;;;;;;40.35;16.60;;;13.90;99.90;;;;;;4999318;28;20491;-94
2023/03/11 18:37:26;;;;;;;36.33;14.82;;;13.90;99.90;;;;;;4998670;28;20534;-92
2023/03/11 18:39:52;;;;;;;36.30;15.45;;;13.80;99.90;;;;;;4985011;28;20050;-94
2023/03/11 18:42:20;;;;;;;41.45;15.63;;;13.80;99.90;;;;;;5017723;28;20033;-92
2023/03/11 18:44:47;;;;;;;43.55;15.52;;;13.70;99.90;;;;;;4985489;28;20094;-93
2023/03/11 18:47:13;;;;;;;34.53;13.80;;;13.70;99.90;;;;;;5000486;28;20038;-92
2023/03/11 18:49:40;;;;;;;33.83;14.23;;;13.70;99.90;;;;;;4985726;28;20032;-92
2023/03/11 18:52:06;;;;;;;33.13;14.05;;;13.70;99.90;;;;;;5000764;28;20072;-92
2023/03/11 18:54:32;;;;;;;29.30;13.93;;;13.70;99.90;;;;;;4983552;28;20041;-91
2023/03/11 18:56:58;;;;;;;38.97;14.57;;;13.60;99.90;;;;;;4999867;28;20045;-91
2023/03/11 18:59:26;;;;;;;39.38;15.05;;;13.60;99.90;;;;;;4983748;28;20026;-92
2023/03/11 19:01:53;;;;;;;42.33;15.45;;;13.60;99.90;;;;;;4998975;28;20126;-90
2023/03/11 19:04:19;;;;;;;41.63;15.90;;;13.60;99.90;;;;;;4983177;28;20046;-92
2023/03/11 19:06:45;;;;;;;46.30;16.55;;;13.60;99.90;;;;;;4982639;28;20029;-91
2023/03/11 19:09:11;;;;;;;42.30;16.48;;;13.50;99.90;;;;;;4998356;28;20051;-93
2023/03/11 19:11:38;;;;;;;44.97;16.25;;;13.40;99.90;;;;;;4998142;28;20067;-91
2023/03/11 19:14:04;;;;;;;49.47;15.98;;;13.30;99.90;;;;;;4998269;28;20054;-94
2023/03/11 19:16:30;;;;;;;49.88;17.80;;;13.30;99.90;;;;;;4998523;28;20065;-91
2023/03/11 19:18:57;;;;;;;39.97;15.77;;;13.20;99.90;;;;;;4998180;28;20033;-93
2023/03/11 19:21:24;;;;;;;37.55;15.05;;;13.20;99.90;;;;;;4998386;28;20025;-92
2023/03/11 19:23:53;;;;;;;40.17;16.38;;;13.10;99.90;;;;;;4997356;28;20026;-92
2023/03/11 19:26:21;;;;;;;44.83;16.42;;;13.20;99.90;;;;;;4998512;28;20029;-90
2023/03/11 19:28:47;;;;;;;50.70;15.80;;;13.10;99.90;;;;;;4999252;28;20030;-90
2023/03/11 19:31:14;;;;;;;40.75;16.50;;;13.10;99.90;;;;;;5002310;28;20026;-91
2023/03/11 19:33:41;;;;;;;44.63;16.42;;;13.10;99.90;;;;;;4989970;28;20044;-92
2023/03/11 19:36:08;;;;;;;43.17;16.80;;;13.10;99.90;;;;;;5001334;28;20050;-90
2023/03/11 19:38:34;;;;;;;45.08;16.60;;;13.00;99.90;;;;;;4998407;28;20022;-92
2023/03/11 19:41:03;;;;;;;37.17;16.27;;;12.90;99.90;;;;;;4981953;28;20025;-92
2023/03/11 19:43:30;;;;;;;58.45;18.63;;;12.80;99.90;;;;;;4998432;28;20433;-91
2023/03/11 19:45:56;;;;;;;49.95;16.83;;;12.80;99.90;;;;;;4982129;28;20472;-91
2023/03/11 19:48:22;;;;;;;37.72;17.17;;;12.80;99.90;;;;;;4966941;28;20030;-92
2023/03/11 19:50:51;;;;;;;52.92;17.13;;;12.80;99.90;;;;;;4977887;28;20026;-91
2023/03/11 19:53:20;;;;;;;46.60;17.17;;;12.70;99.90;;;;;;4978351;28;20033;-91
2023/03/11 19:55:50;;;;;;;50.92;16.83;;;12.80;99.90;;;;;;4963975;28;20035;-91
2023/03/11 19:58:17;;;;;;;44.13;17.42;;;12.80;99.90;;;;;;4997171;28;20022;-91
2023/03/11 20:00:44;;;;;;;41.35;17.38;;;12.80;99.90;;;;;;4997192;28;20390;-91
2023/03/11 20:03:11;;;;;;;43.15;16.88;;;12.80;99.90;;;;;;4996823;28;20428;-90
2023/03/11 20:05:39;;;;;;;50.33;18.63;;;12.70;99.90;;;;;;4997282;28;20030;-91
2023/03/11 20:08:07;;;;;;;38.15;17.27;;;12.70;99.90;;;;;;4997412;28;20030;-91
2023/03/11 20:10:37;;;;;;;38.08;17.88;;;12.60;99.90;;;;;;4980961;28;20048;-92
2023/03/11 20:13:03;;;;;;;44.80;17.25;;;12.60;99.90;;;;;;4997161;28;20390;-91
2023/03/11 20:15:30;;;;;;;39.55;17.58;;;12.50;99.90;;;;;;4980656;28;20126;-92
2023/03/11 20:17:56;;;;;;;45.92;16.95;;;12.50;99.90;;;;;;4996791;28;20030;-92
2023/03/11 20:20:23;;;;;;;35.08;16.75;;;12.50;99.90;;;;;;4996928;28;20041;-92
2023/03/11 20:22:49;;;;;;;45.47;18.05;;;12.40;99.90;;;;;;4996936;28;20037;-91
2023/03/11 20:25:16;;;;;;;34.53;17.67;;;12.40;99.90;;;;;;4997062;28;20382;-90
2023/03/11 20:27:42;;;;;;;46.85;17.63;;;12.30;99.90;;;;;;4997582;28;20491;-90
2023/03/11 20:30:09;;;;;;;47.05;17.55;;;12.30;99.90;;;;;;4997193;28;20390;-90
2023/03/11 20:32:35;;;;;;;39.95;16.80;;;12.30;99.90;;;;;;4996932;28;20399;-92
2023/03/11 20:35:02;;;;;;;38.38;16.63;;;12.30;99.90;;;;;;4996558;28;20176;-90
2023/03/11 20:37:29;;;;;;;45.17;16.63;;;12.20;99.90;;;;;;4996881;28;20032;-91
2023/03/11 20:39:55;;;;;;;39.60;15.40;;;12.30;99.90;;;;;;4980739;28;20033;-91
2023/03/11 20:42:22;;;;;;;36.17;15.73;;;12.20;99.90;;;;;;4981199;28;20034;-91
2023/03/11 20:44:52;;;;;;;40.05;16.45;;;12.20;99.90;;;;;;4981040;28;20022;-90
2023/03/11 20:47:19;;;;;;;37.20;16.08;;;12.20;99.90;;;;;;4997545;28;20030;-91
2023/03/11 20:49:45;;;;;;;43.90;15.80;;;12.10;99.90;;;;;;4980474;28;20033;-92
2023/03/11 20:52:12;;;;;;;30.63;14.93;;;12.10;99.90;;;;;;4980721;28;20076;-90
2023/03/11 20:54:41;;;;;;;37.63;15.48;;;12.00;99.90;;;;;;4996596;28;20026;-91
2023/03/11 20:57:08;;;;;;;35.80;15.30;;;12.00;99.90;;;;;;4996674;28;20026;-93
2023/03/11 20:59:34;;;;;;;43.72;15.32;;;11.90;99.90;;;;;;4996920;28;20048;-93
2023/03/11 21:02:00;;;;;;;39.80;15.50;;;11.90;99.90;;;;;;4984580;28;20045;-91
2023/03/11 21:04:27;;;;;;;36.78;15.75;;;11.90;99.90;;;;;;4996987;28;20077;-91
2023/03/11 21:06:56;;;;;;;41.45;15.20;;;11.80;99.90;;;;;;4981853;28;20030;-92
2023/03/11 21:09:22;;;;;;;43.67;16.10;;;11.80;99.90;;;;;;4997138;28;20034;-92
2023/03/11 21:11:49;;;;;;;40.28;17.33;;;11.80;99.90;;;;;;4980792;28;20026;-91
2023/03/11 21:14:17;;;;;;;50.75;17.40;;;11.80;99.90;;;;;;4997535;28;20058;-90
2023/03/11 21:16:43;;;;;;;41.78;17.35;;;11.80;99.90;;;;;;4981049;28;20038;-91
2023/03/11 21:19:12;;;;;;;41.78;17.92;;;11.80;99.90;;;;;;4997246;28;20054;-90
2023/03/11 21:21:39;;;;;;;43.10;19.27;;;11.80;99.90;;;;;;4980893;28;20022;-92
2023/03/11 21:24:06;;;;;;;41.30;18.20;;;11.80;99.90;;;;;;4996917;28;20061;-92
2023/03/11 21:26:33;;;;;;;38.88;17.15;;;11.90;99.90;;;;;;4980918;28;20026;-93
2023/03/11 21:28:59;;;;;;;44.53;18.85;;;12.00;99.90;;;;;;5000463;28;20033;-93
2023/03/11 21:31:26;;;;;;;43.70;17.25;;;12.10;99.90;;;;;;5005436;28;20029;-91
2023/03/11 21:33:54;;;;;;;40.65;16.50;;;12.10;99.90;;;;;;5005052;28;20038;-91
2023/03/11 21:36:21;;;;;;;43.30;16.63;;;12.20;99.90;;;;;;4998383;28;20039;-93
2023/03/11 21:38:49;;;;;;;53.63;16.13;;;12.20;99.90;;;;;;5014097;28;20058;-90
2023/03/11 21:41:24;;;;;;;40.90;13.85;;;12.30;99.90;;;;;;5021255;28;20042;-90
2023/03/11 21:43:52;;;;;;;32.95;13.90;;;12.40;99.90;;;;;;5005249;28;20029;-89
2023/03/11 21:46:23;;;;;;;49.53;12.70;;;12.40;99.90;;;;;;5015630;28;20031;-93
2023/03/11 21:48:50;;;;;;;34.28;12.95;;;12.50;99.90;;;;;;5009309;28;20031;-92
2023/03/11 21:51:17;;;;;;;40.50;13.32;;;12.50;99.90;;;;;;5007088;28;20480;-90
2023/03/11 21:53:45;;;;;;;37.50;13.25;;;12.50;99.90;;;;;;4993519;28;20085;-90
2023/03/11 21:56:12;;;;;;;37.40;13.65;;;12.60;99.90;;;;;;4993395;28;20045;-93
2023/03/11 21:58:40;;;;;;;42.92;12.60;;;12.50;99.90;;;;;;4993279;28;20030;-92
2023/03/11 22:01:07;;;;;;;33.70;13.20;;;12.50;99.90;;;;;;4992886;28;20035;-90
2023/03/11 22:03:35;;;;;;;32.78;13.15;;;12.50;99.90;;;;;;4979933;28;20492;-91
2023/03/11 22:06:07;;;;;;;36.47;13.75;;;12.50;99.90;;;;;;4980239;28;20034;-90
2023/03/11 22:08:34;;;;;;;37.28;13.27;;;12.30;99.90;;;;;;4980137;28;20117;-92
2023/03/11 22:11:01;;;;;;;29.30;14.77;;;12.20;99.90;;;;;;4963331;28;20027;-91
2023/03/11 22:13:28;;;;;;;36.90;13.35;;;12.10;99.90;;;;;;4979284;28;20511;-90
2023/03/11 22:15:55;;;;;;;40.30;13.43;;;12.00;99.90;;;;;;4963633;28;20042;-92
2023/03/11 22:18:24;;;;;;;46.03;14.48;;;11.90;99.90;;;;;;4980026;28;20033;-91
2023/03/11 22:20:51;;;;;;;32.92;13.75;;;11.90;99.90;;;;;;4963605;28;20439;-92
2023/03/11 22:23:18;;;;;;;37.53;13.63;;;11.80;99.90;;;;;;4979634;28;20419;-92
2023/03/11 22:25:44;;;;;;;43.88;14.23;;;11.80;99.90;;;;;;4963387;28;20048;-91
2023/03/11 22:28:12;;;;;;;39.63;14.50;;;11.70;99.90;;;;;;4979695;28;20117;-92
2023/03/11 22:30:38;;;;;;;38.63;13.90;;;11.60;99.90;;;;;;4963417;28;20018;-92
2023/03/11 22:33:05;;;;;;;35.10;12.98;;;11.50;99.90;;;;;;4979592;28;20030;-93
2023/03/11 22:35:32;;;;;;;41.53;12.25;;;11.50;99.90;;;;;;4963175;28;20065;-92
2023/03/11 22:37:59;;;;;;;48.65;13.38;;;11.40;99.90;;;;;;4963273;28;20120;-92
2023/03/11 22:40:26;;;;;;;38.58;12.45;;;11.40;99.90;;;;;;4963545;28;20065;-92
2023/03/11 22:42:53;;;;;;;42.88;12.50;;;11.40;99.90;;;;;;4961667;28;20034;-91
2023/03/11 22:45:25;;;;;;;37.88;13.20;;;11.40;99.90;;;;;;4980004;28;20022;-93
2023/03/11 22:47:52;;;;;;;37.50;12.82;;;11.30;99.90;;;;;;4963319;28;20045;-93
2023/03/11 22:50:19;;;;;;;35.75;12.98;;;11.20;99.90;;;;;;4979349;28;20034;-92
2023/03/11 22:52:46;;;;;;;43.17;13.60;;;11.20;99.90;;;;;;4963078;28;20030;-91
2023/03/11 22:55:16;;;;;;;36.55;13.15;;;11.20;99.90;;;;;;4963017;28;20102;-92
2023/03/11 22:57:42;;;;;;;38.10;14.52;;;11.20;99.90;;;;;;4978953;28;20031;-92
2023/03/11 23:00:16;;;;;;;39.40;12.52;;;11.20;99.90;;;;;;4963035;28;20076;-93
2023/03/11 23:02:44;;;;;;;40.95;14.65;;;11.20;99.90;;;;;;4995321;28;20121;-91
2023/03/11 23:05:12;;;;;;;35.45;14.55;;;11.10;99.90;;;;;;4993252;28;20057;-92
2023/03/11 23:07:39;;;;;;;43.75;15.43;;;11.10;99.90;;;;;;4995147;28;20031;-92
2023/03/11 23:10:07;;;;;;;40.20;14.70;;;11.00;99.90;;;;;;4995356;28;20033;-92
2023/03/11 23:12:37;;;;;;;49.20;17.02;;;11.00;99.90;;;;;;4978875;28;20027;-93
2023/03/11 23:15:11;;;;;;;57.53;25.65;;;10.90;99.90;;;;;;4995038;28;20427;-92
2023/03/11 23:17:38;;;;;;;54.25;22.90;;;10.90;99.90;;;;;;4994970;28;20121;-91
2023/03/11 23:20:09;;;;;;;57.53;22.60;;;10.90;99.90;;;;;;4994937;28;20081;-92
2023/03/11 23:22:40;;;;;;;55.72;22.80;;;10.80;99.90;;;;;;4994536;28;20049;-90
2023/03/11 23:25:11;;;;;;;70.20;26.80;;;10.80;99.90;;;;;;4994688;28;20030;-92
2023/03/11 23:27:38;;;;;;;58.10;24.75;;;10.70;99.90;;;;;;4994771;28;20030;-92
2023/03/11 23:30:06;;;;;;;64.78;25.83;;;10.70;99.90;;;;;;4994615;28;20035;-90
2023/03/11 23:32:33;;;;;;;66.15;25.58;;;10.70;99.90;;;;;;4994843;28;20499;-92
2023/03/11 23:35:00;;;;;;;52.92;21.92;;;10.70;99.90;;;;;;4994772;28;20038;-91
2023/03/11 23:37:27;;;;;;;57.80;22.00;;;10.70;99.90;;;;;;4995233;28;20113;-90
2023/03/11 23:39:54;;;;;;;42.97;18.05;;;10.70;99.90;;;;;;4995324;28;20030;-91
2023/03/11 23:42:21;;;;;;;47.92;17.83;;;10.60;99.90;;;;;;4994713;28;20030;-92
2023/03/11 23:44:47;;;;;;;44.90;16.40;;;10.60;99.90;;;;;;4994741;28;20030;-92
2023/03/11 23:47:14;;;;;;;47.35;17.35;;;10.60;99.90;;;;;;4995947;28;20026;-91
2023/03/11 23:49:40;;;;;;;44.92;17.73;;;10.60;99.90;;;;;;4996523;28;20116;-91
2023/03/11 23:52:07;;;;;;;40.03;17.67;;;10.60;99.90;;;;;;4994449;28;20603;-91
2023/03/11 23:54:34;;;;;;;46.88;16.65;;;10.70;99.90;;;;;;4994234;28;20026;-91
2023/03/11 23:57:01;;;;;;;36.90;13.75;;;10.70;99.90;;;;;;4994282;28;20034;-92
2023/03/11 23:59:28;;;;;;;40.75;13.65;;;10.80;99.90;;;;;;4989991;28;20120;-93
